sensor_id;sensor_type;location;lat;lon;timestamp;pressure;altitude;pressure_sealevel;temperature;humidity
50310;BME280;36207;51.850;21.698;2023-08-12T00:00:29;100535.56;;;13.24;63.82
50310;BME280;36207;51.850;21.698;2023-08-12T00:03:15;100533.02;;;13.20;63.86
50310;BME280;36207;51.850;21.698;2023-08-12T00:05:41;100531.20;;;13.17;63.57
50310;BME280;36207;51.850;21.698;2023-08-12T00:08:08;100532.38;;;13.16;63.90
50310;BME280;36207;51.850;21.698;2023-08-12T00:10:34;100534.40;;;13.16;64.19
50310;BME280;36207;51.850;21.698;2023-08-12T00:13:00;100534.52;;;13.13;64.17
50310;BME280;36207;51.850;21.698;2023-08-12T00:15:26;100535.41;;;13.12;64.21
50310;BME280;36207;51.850;21.698;2023-08-12T00:17:52;100533.05;;;13.11;64.15
50310;BME280;36207;51.850;21.698;2023-08-12T00:20:18;100532.67;;;13.08;64.15
50310;BME280;36207;51.850;21.698;2023-08-12T00:22:44;100530.70;;;13.04;64.07
50310;BME280;36207;51.850;21.698;2023-08-12T00:25:10;100526.39;;;13.01;64.13
50310;BME280;36207;51.850;21.698;2023-08-12T00:27:36;100527.14;;;13.01;64.10
50310;BME280;36207;51.850;21.698;2023-08-12T00:30:04;100528.90;;;12.99;64.35
50310;BME280;36207;51.850;21.698;2023-08-12T00:32:30;100532.05;;;13.00;64.45
50310;BME280;36207;51.850;21.698;2023-08-12T00:34:56;100536.11;;;12.99;64.30
50310;BME280;36207;51.850;21.698;2023-08-12T00:37:22;100535.96;;;12.97;64.16
50310;BME280;36207;51.850;21.698;2023-08-12T00:39:48;100538.36;;;12.94;64.23
50310;BME280;36207;51.850;21.698;2023-08-12T00:42:14;100532.08;;;12.90;64.01
50310;BME280;36207;51.850;21.698;2023-08-12T00:44:40;100532.21;;;12.88;64.13
50310;BME280;36207;51.850;21.698;2023-08-12T00:47:05;100533.66;;;12.84;64.44
50310;BME280;36207;51.850;21.698;2023-08-12T00:49:32;100532.18;;;12.82;64.57
50310;BME280;36207;51.850;21.698;2023-08-12T00:51:59;100532.05;;;12.80;64.59
50310;BME280;36207;51.850;21.698;2023-08-12T00:54:26;100530.52;;;12.79;64.61
50310;BME280;36207;51.850;21.698;2023-08-12T00:56:53;100528.11;;;12.79;64.48
50310;BME280;36207;51.850;21.698;2023-08-12T00:59:19;100523.86;;;12.75;64.76
50310;BME280;36207;51.850;21.698;2023-08-12T01:01:46;100524.16;;;12.71;64.89
50310;BME280;36207;51.850;21.698;2023-08-12T01:04:13;100521.56;;;12.66;64.94
50310;BME280;36207;51.850;21.698;2023-08-12T01:06:39;100525.42;;;12.62;64.86
50310;BME280;36207;51.850;21.698;2023-08-12T01:09:05;100522.02;;;12.59;64.87
50310;BME280;36207;51.850;21.698;2023-08-12T01:11:39;100521.54;;;12.57;64.76
50310;BME280;36207;51.850;21.698;2023-08-12T01:14:24;100521.95;;;12.57;65.09
50310;BME280;36207;51.850;21.698;2023-08-12T01:16:57;100521.08;;;12.55;65.36
50310;BME280;36207;51.850;21.698;2023-08-12T01:19:37;100524.45;;;12.52;65.09
50310;BME280;36207;51.850;21.698;2023-08-12T01:22:05;100521.53;;;12.48;64.94
50310;BME280;36207;51.850;21.698;2023-08-12T01:24:42;100517.61;;;12.45;64.78
50310;BME280;36207;51.850;21.698;2023-08-12T01:27:10;100514.25;;;12.42;64.99
50310;BME280;36207;51.850;21.698;2023-08-12T01:29:42;100516.50;;;12.38;64.86
50310;BME280;36207;51.850;21.698;2023-08-12T01:32:14;100516.95;;;12.37;64.79
50310;BME280;36207;51.850;21.698;2023-08-12T01:37:21;100517.10;;;12.37;65.27
50310;BME280;36207;51.850;21.698;2023-08-12T01:39:49;100518.80;;;12.35;65.22
50310;BME280;36207;51.850;21.698;2023-08-12T01:42:19;100523.25;;;12.33;65.23
50310;BME280;36207;51.850;21.698;2023-08-12T01:44:46;100523.15;;;12.30;65.16
50310;BME280;36207;51.850;21.698;2023-08-12T01:47:12;100521.97;;;12.26;65.25
50310;BME280;36207;51.850;21.698;2023-08-12T01:49:38;100519.37;;;12.23;65.40
50310;BME280;36207;51.850;21.698;2023-08-12T01:52:04;100516.09;;;12.24;65.29
50310;BME280;36207;51.850;21.698;2023-08-12T01:54:30;100517.42;;;12.25;65.42
50310;BME280;36207;51.850;21.698;2023-08-12T01:57:04;100519.11;;;12.24;65.35
50310;BME280;36207;51.850;21.698;2023-08-12T01:59:31;100515.40;;;12.22;65.49
50310;BME280;36207;51.850;21.698;2023-08-12T02:01:58;100513.23;;;12.20;65.50
50310;BME280;36207;51.850;21.698;2023-08-12T02:04:23;100516.83;;;12.18;65.62
50310;BME280;36207;51.850;21.698;2023-08-12T02:06:49;100517.04;;;12.16;65.26
50310;BME280;36207;51.850;21.698;2023-08-12T02:09:15;100515.05;;;12.15;65.26
50310;BME280;36207;51.850;21.698;2023-08-12T02:11:41;100515.64;;;12.16;65.18
50310;BME280;36207;51.850;21.698;2023-08-12T02:14:07;100512.18;;;12.16;65.30
50310;BME280;36207;51.850;21.698;2023-08-12T02:16:33;100515.20;;;12.17;65.28
50310;BME280;36207;51.850;21.698;2023-08-12T02:18:58;100509.65;;;12.15;65.26
50310;BME280;36207;51.850;21.698;2023-08-12T02:21:24;100513.09;;;12.12;65.58
50310;BME280;36207;51.850;21.698;2023-08-12T02:23:50;100518.44;;;12.07;65.69
50310;BME280;36207;51.850;21.698;2023-08-12T02:26:16;100519.92;;;12.03;65.71
50310;BME280;36207;51.850;21.698;2023-08-12T02:28:42;100518.98;;;11.99;65.66
50310;BME280;36207;51.850;21.698;2023-08-12T02:31:07;100518.77;;;11.95;65.82
50310;BME280;36207;51.850;21.698;2023-08-12T02:33:33;100521.85;;;11.94;65.88
50310;BME280;36207;51.850;21.698;2023-08-12T02:35:59;100520.81;;;11.94;65.90
50310;BME280;36207;51.850;21.698;2023-08-12T02:38:25;100519.45;;;11.93;65.86
50310;BME280;36207;51.850;21.698;2023-08-12T02:40:51;100521.48;;;11.93;65.89
50310;BME280;36207;51.850;21.698;2023-08-12T02:43:17;100524.80;;;11.89;66.13
50310;BME280;36207;51.850;21.698;2023-08-12T02:45:43;100527.20;;;11.85;66.02
50310;BME280;36207;51.850;21.698;2023-08-12T02:48:10;100524.77;;;11.84;65.88
50310;BME280;36207;51.850;21.698;2023-08-12T02:50:36;100528.48;;;11.83;65.94
50310;BME280;36207;51.850;21.698;2023-08-12T02:53:02;100526.90;;;11.81;66.01
50310;BME280;36207;51.850;21.698;2023-08-12T02:55:28;100525.48;;;11.78;65.80
50310;BME280;36207;51.850;21.698;2023-08-12T02:57:54;100526.92;;;11.76;65.83
50310;BME280;36207;51.850;21.698;2023-08-12T03:00:20;100533.56;;;11.74;66.12
50310;BME280;36207;51.850;21.698;2023-08-12T03:02:47;100530.06;;;11.72;66.04
50310;BME280;36207;51.850;21.698;2023-08-12T03:05:13;100535.65;;;11.70;66.07
50310;BME280;36207;51.850;21.698;2023-08-12T03:07:39;100537.61;;;11.67;66.07
50310;BME280;36207;51.850;21.698;2023-08-12T03:10:05;100540.60;;;11.64;65.94
50310;BME280;36207;51.850;21.698;2023-08-12T03:12:31;100540.33;;;11.63;66.17
50310;BME280;36207;51.850;21.698;2023-08-12T03:14:57;100541.13;;;11.64;66.09
50310;BME280;36207;51.850;21.698;2023-08-12T03:17:23;100539.16;;;11.64;66.04
50310;BME280;36207;51.850;21.698;2023-08-12T03:19:49;100539.20;;;11.62;66.29
50310;BME280;36207;51.850;21.698;2023-08-12T03:22:15;100544.05;;;11.60;66.34
50310;BME280;36207;51.850;21.698;2023-08-12T03:24:41;100552.89;;;11.58;66.34
50310;BME280;36207;51.850;21.698;2023-08-12T03:27:07;100550.67;;;11.54;66.43
50310;BME280;36207;51.850;21.698;2023-08-12T03:29:33;100550.50;;;11.51;66.46
50310;BME280;36207;51.850;21.698;2023-08-12T03:31:58;100549.73;;;11.51;66.49
50310;BME280;36207;51.850;21.698;2023-08-12T03:34:24;100555.22;;;11.53;66.60
50310;BME280;36207;51.850;21.698;2023-08-12T03:36:50;100554.21;;;11.54;66.55
50310;BME280;36207;51.850;21.698;2023-08-12T03:39:16;100559.20;;;11.54;66.63
50310;BME280;36207;51.850;21.698;2023-08-12T03:41:42;100560.44;;;11.54;66.79
50310;BME280;36207;51.850;21.698;2023-08-12T03:44:08;100562.98;;;11.54;66.77
50310;BME280;36207;51.850;21.698;2023-08-12T03:46:34;100566.68;;;11.53;66.86
50310;BME280;36207;51.850;21.698;2023-08-12T03:49:00;100566.95;;;11.52;66.85
50310;BME280;36207;51.850;21.698;2023-08-12T03:51:26;100570.19;;;11.53;67.22
50310;BME280;36207;51.850;21.698;2023-08-12T03:53:52;100569.55;;;11.54;67.16
50310;BME280;36207;51.850;21.698;2023-08-12T03:56:18;100569.98;;;11.55;67.42
50310;BME280;36207;51.850;21.698;2023-08-12T03:58:44;100568.54;;;11.56;67.29
50310;BME280;36207;51.850;21.698;2023-08-12T04:01:10;100570.36;;;11.61;67.19
50310;BME280;36207;51.850;21.698;2023-08-12T04:03:36;100567.73;;;11.67;67.26
50310;BME280;36207;51.850;21.698;2023-08-12T04:06:02;100571.80;;;11.72;67.30
50310;BME280;36207;51.850;21.698;2023-08-12T04:08:29;100570.44;;;11.76;67.52
50310;BME280;36207;51.850;21.698;2023-08-12T04:10:54;100570.47;;;11.79;67.62
50310;BME280;36207;51.850;21.698;2023-08-12T04:13:20;100570.25;;;11.82;67.61
50310;BME280;36207;51.850;21.698;2023-08-12T04:15:50;100570.66;;;11.87;67.85
50310;BME280;36207;51.850;21.698;2023-08-12T04:18:16;100570.92;;;11.94;67.83
50310;BME280;36207;51.850;21.698;2023-08-12T04:20:45;100569.26;;;12.01;67.87
50310;BME280;36207;51.850;21.698;2023-08-12T04:23:11;100567.34;;;12.08;67.95
50310;BME280;36207;51.850;21.698;2023-08-12T04:25:37;100568.55;;;12.15;67.97
50310;BME280;36207;51.850;21.698;2023-08-12T04:28:04;100566.27;;;12.19;68.11
50310;BME280;36207;51.850;21.698;2023-08-12T04:30:29;100564.19;;;12.25;68.27
50310;BME280;36207;51.850;21.698;2023-08-12T04:32:55;100565.86;;;12.34;68.07
50310;BME280;36207;51.850;21.698;2023-08-12T04:35:22;100564.83;;;12.44;67.97
50310;BME280;36207;51.850;21.698;2023-08-12T04:37:47;100564.41;;;12.55;68.07
50310;BME280;36207;51.850;21.698;2023-08-12T04:40:13;100566.48;;;12.65;68.11
50310;BME280;36207;51.850;21.698;2023-08-12T04:42:39;100565.77;;;12.76;67.84
50310;BME280;36207;51.850;21.698;2023-08-12T04:45:06;100562.79;;;12.88;67.97
50310;BME280;36207;51.850;21.698;2023-08-12T04:47:32;100566.17;;;13.01;68.25
50310;BME280;36207;51.850;21.698;2023-08-12T04:49:58;100566.26;;;13.14;68.09
50310;BME280;36207;51.850;21.698;2023-08-12T04:52:23;100569.31;;;13.26;68.10
50310;BME280;36207;51.850;21.698;2023-08-12T04:54:53;100570.48;;;13.37;68.21
50310;BME280;36207;51.850;21.698;2023-08-12T04:57:19;100572.48;;;13.48;68.18
50310;BME280;36207;51.850;21.698;2023-08-12T04:59:44;100565.95;;;13.57;68.10
50310;BME280;36207;51.850;21.698;2023-08-12T05:02:10;100564.59;;;13.67;67.91
50310;BME280;36207;51.850;21.698;2023-08-12T05:04:37;100563.38;;;13.76;67.98
50310;BME280;36207;51.850;21.698;2023-08-12T05:07:03;100563.20;;;13.84;68.04
50310;BME280;36207;51.850;21.698;2023-08-12T05:09:28;100560.27;;;13.95;67.83
50310;BME280;36207;51.850;21.698;2023-08-12T05:11:54;100565.40;;;14.09;68.24
50310;BME280;36207;51.850;21.698;2023-08-12T05:14:20;100562.23;;;14.23;68.19
50310;BME280;36207;51.850;21.698;2023-08-12T05:16:46;100562.23;;;14.36;68.17
50310;BME280;36207;51.850;21.698;2023-08-12T05:19:12;100565.41;;;14.48;68.13
50310;BME280;36207;51.850;21.698;2023-08-12T05:21:38;100565.80;;;14.59;68.21
50310;BME280;36207;51.850;21.698;2023-08-12T05:24:04;100561.27;;;14.70;68.16
50310;BME280;36207;51.850;21.698;2023-08-12T05:26:33;100562.97;;;14.85;68.28
50310;BME280;36207;51.850;21.698;2023-08-12T05:28:58;100564.48;;;15.01;68.18
50310;BME280;36207;51.850;21.698;2023-08-12T05:31:24;100559.98;;;15.14;68.30
50310;BME280;36207;51.850;21.698;2023-08-12T05:33:50;100564.55;;;15.29;68.17
50310;BME280;36207;51.850;21.698;2023-08-12T05:36:16;100560.28;;;15.40;68.23
50310;BME280;36207;51.850;21.698;2023-08-12T05:38:42;100558.51;;;15.54;68.34
50310;BME280;36207;51.850;21.698;2023-08-12T05:41:08;100550.98;;;15.70;68.37
50310;BME280;36207;51.850;21.698;2023-08-12T05:43:34;100547.10;;;15.87;68.44
50310;BME280;36207;51.850;21.698;2023-08-12T05:46:00;100544.55;;;16.03;68.03
50310;BME280;36207;51.850;21.698;2023-08-12T05:48:28;100544.58;;;16.14;67.73
50310;BME280;36207;51.850;21.698;2023-08-12T05:50:54;100539.48;;;16.26;67.96
50310;BME280;36207;51.850;21.698;2023-08-12T05:53:20;100541.42;;;16.41;67.86
50310;BME280;36207;51.850;21.698;2023-08-12T05:55:46;100544.98;;;16.55;67.78
50310;BME280;36207;51.850;21.698;2023-08-12T05:58:12;100539.55;;;16.69;67.89
50310;BME280;36207;51.850;21.698;2023-08-12T06:00:38;100537.77;;;16.84;67.80
50310;BME280;36207;51.850;21.698;2023-08-12T06:03:04;100536.27;;;16.97;67.75
50310;BME280;36207;51.850;21.698;2023-08-12T06:05:30;100534.02;;;17.09;67.76
50310;BME280;36207;51.850;21.698;2023-08-12T06:07:55;100533.12;;;17.19;67.41
50310;BME280;36207;51.850;21.698;2023-08-12T06:10:21;100530.98;;;17.32;67.54
50310;BME280;36207;51.850;21.698;2023-08-12T06:12:47;100526.30;;;17.49;67.63
50310;BME280;36207;51.850;21.698;2023-08-12T06:15:13;100523.25;;;17.65;67.63
50310;BME280;36207;51.850;21.698;2023-08-12T06:17:39;100525.95;;;17.82;67.72
50310;BME280;36207;51.850;21.698;2023-08-12T06:20:06;100527.09;;;17.99;67.83
50310;BME280;36207;51.850;21.698;2023-08-12T06:22:31;100528.15;;;18.17;67.62
50310;BME280;36207;51.850;21.698;2023-08-12T06:24:57;100524.10;;;18.34;67.63
50310;BME280;36207;51.850;21.698;2023-08-12T06:27:23;100526.09;;;18.53;67.58
50310;BME280;36207;51.850;21.698;2023-08-12T06:29:49;100526.52;;;18.71;67.64
50310;BME280;36207;51.850;21.698;2023-08-12T06:32:15;100525.98;;;18.87;67.44
50310;BME280;36207;51.850;21.698;2023-08-12T06:34:41;100525.36;;;19.03;67.43
50310;BME280;36207;51.850;21.698;2023-08-12T06:37:07;100528.28;;;19.19;67.26
50310;BME280;36207;51.850;21.698;2023-08-12T06:39:33;100526.90;;;19.32;66.99
50310;BME280;36207;51.850;21.698;2023-08-12T06:41:58;100525.97;;;19.44;66.90
50310;BME280;36207;51.850;21.698;2023-08-12T06:44:24;100524.37;;;19.58;66.78
50310;BME280;36207;51.850;21.698;2023-08-12T06:46:50;100520.26;;;19.70;66.82
50310;BME280;36207;51.850;21.698;2023-08-12T06:49:17;100516.58;;;19.83;66.48
50310;BME280;36207;51.850;21.698;2023-08-12T06:51:43;100518.95;;;19.95;66.36
50310;BME280;36207;51.850;21.698;2023-08-12T06:54:09;100512.86;;;20.06;66.42
50310;BME280;36207;51.850;21.698;2023-08-12T06:56:35;100511.02;;;20.20;66.29
50310;BME280;36207;51.850;21.698;2023-08-12T06:59:01;100512.14;;;20.32;66.12
50310;BME280;36207;51.850;21.698;2023-08-12T07:01:27;100519.25;;;20.44;65.84
50310;BME280;36207;51.850;21.698;2023-08-12T07:03:54;100520.37;;;20.58;65.60
50310;BME280;36207;51.850;21.698;2023-08-12T07:06:20;100524.98;;;20.70;65.34
50310;BME280;36207;51.850;21.698;2023-08-12T07:08:45;100523.55;;;20.83;65.04
50310;BME280;36207;51.850;21.698;2023-08-12T07:11:11;100524.17;;;20.95;64.88
50310;BME280;36207;51.850;21.698;2023-08-12T07:13:37;100521.65;;;21.06;64.85
50310;BME280;36207;51.850;21.698;2023-08-12T07:16:03;100521.71;;;21.18;64.83
50310;BME280;36207;51.850;21.698;2023-08-12T07:18:29;100525.41;;;21.31;64.55
50310;BME280;36207;51.850;21.698;2023-08-12T07:20:55;100524.67;;;21.43;64.28
50310;BME280;36207;51.850;21.698;2023-08-12T07:23:21;100525.91;;;21.55;64.23
50310;BME280;36207;51.850;21.698;2023-08-12T07:25:47;100524.64;;;21.66;63.89
50310;BME280;36207;51.850;21.698;2023-08-12T07:28:13;100521.09;;;21.76;63.61
50310;BME280;36207;51.850;21.698;2023-08-12T07:30:39;100523.77;;;21.88;63.71
50310;BME280;36207;51.850;21.698;2023-08-12T07:33:05;100526.54;;;22.01;63.57
50310;BME280;36207;51.850;21.698;2023-08-12T07:35:31;100526.05;;;22.15;63.75
50310;BME280;36207;51.850;21.698;2023-08-12T07:37:57;100525.86;;;22.27;62.92
50310;BME280;36207;51.850;21.698;2023-08-12T07:40:23;100524.80;;;22.39;62.78
50310;BME280;36207;51.850;21.698;2023-08-12T07:42:48;100526.59;;;22.50;62.61
50310;BME280;36207;51.850;21.698;2023-08-12T07:45:14;100524.74;;;22.61;62.36
50310;BME280;36207;51.850;21.698;2023-08-12T07:47:40;100527.65;;;22.71;62.76
50310;BME280;36207;51.850;21.698;2023-08-12T07:50:07;100527.52;;;22.83;62.04
50310;BME280;36207;51.850;21.698;2023-08-12T07:52:33;100526.73;;;22.94;61.77
50310;BME280;36207;51.850;21.698;2023-08-12T07:54:58;100525.12;;;23.06;62.01
50310;BME280;36207;51.850;21.698;2023-08-12T07:57:24;100530.72;;;23.19;61.70
50310;BME280;36207;51.850;21.698;2023-08-12T07:59:51;100525.38;;;23.31;61.56
50310;BME280;36207;51.850;21.698;2023-08-12T08:02:17;100523.41;;;23.43;61.31
50310;BME280;36207;51.850;21.698;2023-08-12T08:04:43;100525.08;;;23.53;60.63
50310;BME280;36207;51.850;21.698;2023-08-12T08:07:09;100522.59;;;23.62;60.94
50310;BME280;36207;51.850;21.698;2023-08-12T08:09:35;100518.45;;;23.74;60.40
50310;BME280;36207;51.850;21.698;2023-08-12T08:12:00;100513.77;;;23.84;60.08
50310;BME280;36207;51.850;21.698;2023-08-12T08:14:26;100511.25;;;23.92;59.95
50310;BME280;36207;51.850;21.698;2023-08-12T08:16:53;100504.97;;;24.02;59.55
50310;BME280;36207;51.850;21.698;2023-08-12T08:19:19;100505.87;;;24.11;59.23
50310;BME280;36207;51.850;21.698;2023-08-12T08:21:45;100503.66;;;24.19;58.89
50310;BME280;36207;51.850;21.698;2023-08-12T08:24:11;100501.08;;;24.22;56.17
50310;BME280;36207;51.850;21.698;2023-08-12T08:26:39;100499.56;;;24.22;57.02
50310;BME280;36207;51.850;21.698;2023-08-12T08:29:06;100498.41;;;24.28;58.13
50310;BME280;36207;51.850;21.698;2023-08-12T08:31:32;100494.73;;;24.37;57.91
50310;BME280;36207;51.850;21.698;2023-08-12T08:33:58;100494.46;;;24.47;57.66
50310;BME280;36207;51.850;21.698;2023-08-12T08:36:24;100494.23;;;24.57;57.74
50310;BME280;36207;51.850;21.698;2023-08-12T08:38:50;100495.17;;;24.67;57.21
50310;BME280;36207;51.850;21.698;2023-08-12T08:41:16;100496.38;;;24.73;56.51
50310;BME280;36207;51.850;21.698;2023-08-12T08:43:43;100493.15;;;24.80;56.81
50310;BME280;36207;51.850;21.698;2023-08-12T08:46:15;100488.67;;;24.88;56.02
50310;BME280;36207;51.850;21.698;2023-08-12T08:48:46;100486.10;;;24.88;53.70
50310;BME280;36207;51.850;21.698;2023-08-12T08:51:13;100487.40;;;24.86;53.99
50310;BME280;36207;51.850;21.698;2023-08-12T08:53:40;100489.95;;;24.91;55.13
50310;BME280;36207;51.850;21.698;2023-08-12T08:56:08;100492.90;;;24.98;55.31
50310;BME280;36207;51.850;21.698;2023-08-12T08:58:39;100492.40;;;25.08;55.21
50310;BME280;36207;51.850;21.698;2023-08-12T09:01:06;100484.30;;;25.18;54.84
50310;BME280;36207;51.850;21.698;2023-08-12T09:03:35;100479.48;;;25.26;54.70
50310;BME280;36207;51.850;21.698;2023-08-12T09:06:02;100481.31;;;25.34;54.67
50310;BME280;36207;51.850;21.698;2023-08-12T09:08:33;100477.97;;;25.40;53.99
50310;BME280;36207;51.850;21.698;2023-08-12T09:11:00;100479.39;;;25.42;53.87
50310;BME280;36207;51.850;21.698;2023-08-12T09:13:27;100477.98;;;25.47;53.54
50310;BME280;36207;51.850;21.698;2023-08-12T09:15:54;100474.63;;;25.55;53.98
50310;BME280;36207;51.850;21.698;2023-08-12T09:18:20;100470.73;;;25.65;53.55
50310;BME280;36207;51.850;21.698;2023-08-12T09:20:53;100471.16;;;25.75;53.49
50310;BME280;36207;51.850;21.698;2023-08-12T09:23:19;100468.23;;;25.84;53.32
50310;BME280;36207;51.850;21.698;2023-08-12T09:25:45;100463.13;;;25.90;52.79
50310;BME280;36207;51.850;21.698;2023-08-12T09:28:12;100457.23;;;25.98;52.87
50310;BME280;36207;51.850;21.698;2023-08-12T09:30:39;100459.33;;;26.08;53.31
50310;BME280;36207;51.850;21.698;2023-08-12T09:33:07;100457.36;;;26.17;53.10
50310;BME280;36207;51.850;21.698;2023-08-12T09:35:40;100453.81;;;26.26;52.60
50310;BME280;36207;51.850;21.698;2023-08-12T09:38:10;100455.40;;;26.33;51.27
50310;BME280;36207;51.850;21.698;2023-08-12T09:40:37;100455.79;;;26.28;50.72
50310;BME280;36207;51.850;21.698;2023-08-12T09:43:03;100454.37;;;26.24;50.61
50310;BME280;36207;51.850;21.698;2023-08-12T09:45:30;100454.09;;;26.22;51.14
50310;BME280;36207;51.850;21.698;2023-08-12T09:47:57;100452.89;;;26.26;49.92
50310;BME280;36207;51.850;21.698;2023-08-12T09:50:24;100450.54;;;26.28;49.15
50310;BME280;36207;51.850;21.698;2023-08-12T09:52:52;100447.14;;;26.30;48.55
50310;BME280;36207;51.850;21.698;2023-08-12T09:55:20;100446.44;;;26.27;48.79
50310;BME280;36207;51.850;21.698;2023-08-12T09:57:56;100445.77;;;26.29;48.92
50310;BME280;36207;51.850;21.698;2023-08-12T10:00:24;100444.40;;;26.29;48.12
50310;BME280;36207;51.850;21.698;2023-08-12T10:02:52;100442.15;;;26.27;48.09
50310;BME280;36207;51.850;21.698;2023-08-12T10:05:24;100437.79;;;26.28;48.52
50310;BME280;36207;51.850;21.698;2023-08-12T10:07:52;100435.98;;;26.27;48.25
50310;BME280;36207;51.850;21.698;2023-08-12T10:10:19;100434.88;;;26.28;47.74
50310;BME280;36207;51.850;21.698;2023-08-12T10:12:46;100433.50;;;26.29;47.76
50310;BME280;36207;51.850;21.698;2023-08-12T10:15:14;100429.95;;;26.29;46.90
50310;BME280;36207;51.850;21.698;2023-08-12T10:17:40;100433.67;;;26.27;45.98
50310;BME280;36207;51.850;21.698;2023-08-12T10:20:08;100429.40;;;26.28;47.64
50310;BME280;36207;51.850;21.698;2023-08-12T10:22:38;100429.40;;;26.37;47.65
50310;BME280;36207;51.850;21.698;2023-08-12T10:25:07;100426.66;;;26.38;46.65
50310;BME280;36207;51.850;21.698;2023-08-12T10:27:37;100423.98;;;26.36;46.69
50310;BME280;36207;51.850;21.698;2023-08-12T10:30:05;100420.27;;;26.34;46.69
50310;BME280;36207;51.850;21.698;2023-08-12T10:32:31;100417.91;;;26.31;46.32
50310;BME280;36207;51.850;21.698;2023-08-12T10:34:58;100417.53;;;26.30;45.87
50310;BME280;36207;51.850;21.698;2023-08-12T10:37:25;100416.27;;;26.31;46.07
50310;BME280;36207;51.850;21.698;2023-08-12T10:39:52;100418.99;;;26.35;46.17
50310;BME280;36207;51.850;21.698;2023-08-12T10:42:47;100418.82;;;26.41;45.87
50310;BME280;36207;51.850;21.698;2023-08-12T10:45:15;100417.58;;;26.40;45.06
50310;BME280;36207;51.850;21.698;2023-08-12T10:47:51;100417.67;;;26.39;45.06
50310;BME280;36207;51.850;21.698;2023-08-12T10:50:22;100415.66;;;26.39;44.96
50310;BME280;36207;51.850;21.698;2023-08-12T10:52:53;100410.34;;;26.44;45.30
50310;BME280;36207;51.850;21.698;2023-08-12T10:55:21;100410.63;;;26.52;45.92
50310;BME280;36207;51.850;21.698;2023-08-12T10:57:49;100409.37;;;26.58;45.19
50310;BME280;36207;51.850;21.698;2023-08-12T11:00:19;100409.14;;;26.63;45.71
50310;BME280;36207;51.850;21.698;2023-08-12T11:02:50;100406.99;;;26.73;46.21
50310;BME280;36207;51.850;21.698;2023-08-12T11:05:18;100403.91;;;26.82;45.65
50310;BME280;36207;51.850;21.698;2023-08-12T11:07:49;100400.27;;;26.87;45.73
50310;BME280;36207;51.850;21.698;2023-08-12T11:10:23;100397.23;;;26.94;45.88
50310;BME280;36207;51.850;21.698;2023-08-12T11:15:17;100400.64;;;27.15;45.75
50310;BME280;36207;51.850;21.698;2023-08-12T11:17:46;100398.44;;;27.16;44.43
50310;BME280;36207;51.850;21.698;2023-08-12T11:20:13;100396.02;;;27.15;43.02
50310;BME280;36207;51.850;21.698;2023-08-12T11:22:42;100392.84;;;27.13;43.20
50310;BME280;36207;51.850;21.698;2023-08-12T11:25:12;100387.09;;;27.16;44.37
50310;BME280;36207;51.850;21.698;2023-08-12T11:27:43;100387.41;;;27.23;43.15
50310;BME280;36207;51.850;21.698;2023-08-12T11:30:17;100383.30;;;27.18;42.36
50310;BME280;36207;51.850;21.698;2023-08-12T11:32:46;100380.30;;;27.18;43.36
50310;BME280;36207;51.850;21.698;2023-08-12T11:35:14;100378.41;;;27.21;42.76
50310;BME280;36207;51.850;21.698;2023-08-12T11:37:43;100374.48;;;27.19;42.59
50310;BME280;36207;51.850;21.698;2023-08-12T11:40:10;100371.68;;;27.20;42.75
50310;BME280;36207;51.850;21.698;2023-08-12T11:42:42;100367.49;;;27.23;43.12
50310;BME280;36207;51.850;21.698;2023-08-12T11:45:08;100365.48;;;27.29;43.12
50310;BME280;36207;51.850;21.698;2023-08-12T11:47:36;100362.66;;;27.35;42.68
50310;BME280;36207;51.850;21.698;2023-08-12T11:50:03;100355.89;;;27.41;42.51
50310;BME280;36207;51.850;21.698;2023-08-12T11:52:30;100349.29;;;27.44;42.02
50310;BME280;36207;51.850;21.698;2023-08-12T11:54:56;100346.54;;;27.47;42.49
50310;BME280;36207;51.850;21.698;2023-08-12T11:57:23;100350.27;;;27.54;43.07
50310;BME280;36207;51.850;21.698;2023-08-12T11:59:50;100346.52;;;27.67;43.45
50310;BME280;36207;51.850;21.698;2023-08-12T12:02:16;100346.17;;;27.75;42.69
50310;BME280;36207;51.850;21.698;2023-08-12T12:04:42;100345.67;;;27.77;41.20
50310;BME280;36207;51.850;21.698;2023-08-12T12:07:25;100340.30;;;27.68;39.58
50310;BME280;36207;51.850;21.698;2023-08-12T12:09:52;100341.81;;;27.64;41.74
50310;BME280;36207;51.850;21.698;2023-08-12T12:12:22;100342.89;;;27.74;42.61
50310;BME280;36207;51.850;21.698;2023-08-12T12:14:51;100339.02;;;27.81;41.67
50310;BME280;36207;51.850;21.698;2023-08-12T12:17:20;100334.13;;;27.83;41.54
50310;BME280;36207;51.850;21.698;2023-08-12T12:19:47;100330.98;;;27.85;41.67
50310;BME280;36207;51.850;21.698;2023-08-12T12:22:12;100331.77;;;27.90;42.11
50310;BME280;36207;51.850;21.698;2023-08-12T12:24:45;100329.02;;;27.97;41.88
50310;BME280;36207;51.850;21.698;2023-08-12T12:27:14;100325.34;;;28.04;41.85
50310;BME280;36207;51.850;21.698;2023-08-12T12:29:40;100323.77;;;28.07;40.80
50310;BME280;36207;51.850;21.698;2023-08-12T12:32:06;100325.29;;;28.04;40.58
50310;BME280;36207;51.850;21.698;2023-08-12T12:34:32;100322.40;;;28.01;41.02
50310;BME280;36207;51.850;21.698;2023-08-12T12:36:58;100324.56;;;28.05;41.33
50310;BME280;36207;51.850;21.698;2023-08-12T12:39:24;100319.46;;;28.06;40.62
50310;BME280;36207;51.850;21.698;2023-08-12T12:41:49;100317.69;;;28.08;41.21
50310;BME280;36207;51.850;21.698;2023-08-12T12:44:15;100314.45;;;28.12;41.13